sensor_id;sensor_type;location;lat;lon;timestamp;P1;durP1;ratioP1;P2;durP2;ratioP2
3543;SDS011;1786;52.870;9.578;2023-07-13T00:01:53;5.13;;;3.50;;
3543;SDS011;1786;52.870;9.578;2023-07-13T00:04:21;4.00;;;3.70;;
3543;SDS011;1786;52.870;9.578;2023-07-13T00:06:49;6.10;;;4.10;;
3543;SDS011;1786;52.870;9.578;2023-07-13T00:09:17;4.07;;;3.60;;
3543;SDS011;1786;52.870;9.578;2023-07-13T00:11:44;8.97;;;3.90;;
3543;SDS011;1786;52.870;9.578;2023-07-13T00:14:13;5.53;;;3.80;;
3543;SDS011;1786;52.870;9.578;2023-07-13T00:16:42;5.70;;;4.23;;
3543;SDS011;1786;52.870;9.578;2023-07-13T00:19:12;7.50;;;4.80;;
3543;SDS011;1786;52.870;9.578;2023-07-13T00:21:40;7.27;;;4.77;;
3543;SDS011;1786;52.870;9.578;2023-07-13T00:24:08;5.20;;;4.80;;
3543;SDS011;1786;52.870;9.578;2023-07-13T00:26:42;8.07;;;4.70;;
3543;SDS011;1786;52.870;9.578;2023-07-13T00:29:12;9.77;;;4.73;;
3543;SDS011;1786;52.870;9.578;2023-07-13T00:31:39;4.57;;;4.10;;
3543;SDS011;1786;52.870;9.578;2023-07-13T00:34:06;7.30;;;4.77;;
3543;SDS011;1786;52.870;9.578;2023-07-13T00:36:34;5.07;;;4.67;;
3543;SDS011;1786;52.870;9.578;2023-07-13T00:39:00;9.73;;;4.20;;
3543;SDS011;1786;52.870;9.578;2023-07-13T00:41:27;6.47;;;4.70;;
3543;SDS011;1786;52.870;9.578;2023-07-13T00:43:55;7.10;;;5.60;;
3543;SDS011;1786;52.870;9.578;2023-07-13T00:46:29;5.33;;;4.83;;
3543;SDS011;1786;52.870;9.578;2023-07-13T00:48:59;6.23;;;4.87;;
3543;SDS011;1786;52.870;9.578;2023-07-13T00:51:31;5.30;;;5.00;;
3543;SDS011;1786;52.870;9.578;2023-07-13T00:54:04;6.47;;;5.83;;
3543;SDS011;1786;52.870;9.578;2023-07-13T00:56:32;10.63;;;5.33;;
3543;SDS011;1786;52.870;9.578;2023-07-13T00:59:01;5.60;;;5.30;;
3543;SDS011;1786;52.870;9.578;2023-07-13T01:01:30;8.83;;;5.00;;
3543;SDS011;1786;52.870;9.578;2023-07-13T01:03:58;5.77;;;4.70;;
3543;SDS011;1786;52.870;9.578;2023-07-13T01:06:25;8.47;;;5.33;;
3543;SDS011;1786;52.870;9.578;2023-07-13T01:08:51;9.53;;;6.60;;
3543;SDS011;1786;52.870;9.578;2023-07-13T01:11:19;5.30;;;4.53;;
3543;SDS011;1786;52.870;9.578;2023-07-13T01:13:48;11.37;;;5.17;;
3543;SDS011;1786;52.870;9.578;2023-07-13T01:16:22;5.17;;;4.70;;
3543;SDS011;1786;52.870;9.578;2023-07-13T01:18:52;8.37;;;5.30;;
3543;SDS011;1786;52.870;9.578;2023-07-13T01:21:21;5.83;;;5.43;;
3543;SDS011;1786;52.870;9.578;2023-07-13T01:23:47;5.70;;;5.20;;
3543;SDS011;1786;52.870;9.578;2023-07-13T01:26:14;7.17;;;4.87;;
3543;SDS011;1786;52.870;9.578;2023-07-13T01:28:41;5.50;;;5.00;;
3543;SDS011;1786;52.870;9.578;2023-07-13T01:31:08;9.03;;;5.20;;
3543;SDS011;1786;52.870;9.578;2023-07-13T01:33:36;4.90;;;4.40;;
3543;SDS011;1786;52.870;9.578;2023-07-13T01:36:06;5.83;;;5.10;;
3543;SDS011;1786;52.870;9.578;2023-07-13T01:38:36;8.30;;;5.23;;
3543;SDS011;1786;52.870;9.578;2023-07-13T01:41:03;9.43;;;5.40;;
3543;SDS011;1786;52.870;9.578;2023-07-13T01:43:30;5.40;;;4.90;;
3543;SDS011;1786;52.870;9.578;2023-07-13T01:45:56;5.83;;;5.27;;
3543;SDS011;1786;52.870;9.578;2023-07-13T01:48:43;5.73;;;5.23;;
3543;SDS011;1786;52.870;9.578;2023-07-13T01:51:10;6.90;;;5.40;;
3543;SDS011;1786;52.870;9.578;2023-07-13T01:53:37;7.50;;;5.17;;
3543;SDS011;1786;52.870;9.578;2023-07-13T01:56:03;5.73;;;4.90;;
3543;SDS011;1786;52.870;9.578;2023-07-13T01:58:30;6.80;;;5.37;;
3543;SDS011;1786;52.870;9.578;2023-07-13T02:00:57;9.73;;;5.27;;
3543;SDS011;1786;52.870;9.578;2023-07-13T02:03:24;11.57;;;5.70;;
3543;SDS011;1786;52.870;9.578;2023-07-13T02:05:50;5.40;;;4.90;;
3543;SDS011;1786;52.870;9.578;2023-07-13T02:08:17;5.67;;;4.97;;
3543;SDS011;1786;52.870;9.578;2023-07-13T02:10:44;9.83;;;5.00;;
3543;SDS011;1786;52.870;9.578;2023-07-13T02:13:11;8.73;;;4.33;;
3543;SDS011;1786;52.870;9.578;2023-07-13T02:15:40;7.50;;;5.30;;
3543;SDS011;1786;52.870;9.578;2023-07-13T02:18:07;6.90;;;4.10;;
3543;SDS011;1786;52.870;9.578;2023-07-13T02:20:35;8.33;;;6.07;;
3543;SDS011;1786;52.870;9.578;2023-07-13T02:23:02;7.57;;;5.17;;
3543;SDS011;1786;52.870;9.578;2023-07-13T02:25:29;10.10;;;5.23;;
3543;SDS011;1786;52.870;9.578;2023-07-13T02:27:55;7.13;;;4.67;;
3543;SDS011;1786;52.870;9.578;2023-07-13T02:30:22;11.50;;;5.20;;
3543;SDS011;1786;52.870;9.578;2023-07-13T02:32:53;6.63;;;5.13;;
3543;SDS011;1786;52.870;9.578;2023-07-13T02:35:20;11.70;;;5.80;;
3543;SDS011;1786;52.870;9.578;2023-07-13T02:37:47;6.27;;;4.60;;
3543;SDS011;1786;52.870;9.578;2023-07-13T02:40:13;6.83;;;4.60;;
3543;SDS011;1786;52.870;9.578;2023-07-13T02:42:40;5.83;;;5.00;;
3543;SDS011;1786;52.870;9.578;2023-07-13T02:45:07;11.93;;;5.10;;
3543;SDS011;1786;52.870;9.578;2023-07-13T02:47:35;9.27;;;5.23;;
3543;SDS011;1786;52.870;9.578;2023-07-13T02:50:03;4.93;;;4.50;;
3543;SDS011;1786;52.870;9.578;2023-07-13T02:52:30;9.03;;;4.23;;
3543;SDS011;1786;52.870;9.578;2023-07-13T02:54:57;5.57;;;5.00;;
3543;SDS011;1786;52.870;9.578;2023-07-13T02:57:24;11.53;;;5.10;;
3543;SDS011;1786;52.870;9.578;2023-07-13T02:59:51;10.10;;;4.73;;
3543;SDS011;1786;52.870;9.578;2023-07-13T03:02:18;7.87;;;5.73;;
3543;SDS011;1786;52.870;9.578;2023-07-13T03:04:44;6.93;;;5.10;;
3543;SDS011;1786;52.870;9.578;2023-07-13T03:07:11;5.80;;;5.17;;
3543;SDS011;1786;52.870;9.578;2023-07-13T03:09:41;6.37;;;5.30;;
3543;SDS011;1786;52.870;9.578;2023-07-13T03:12:08;9.73;;;5.47;;
3543;SDS011;1786;52.870;9.578;2023-07-13T03:14:35;6.70;;;5.40;;
3543;SDS011;1786;52.870;9.578;2023-07-13T03:17:05;19.43;;;5.70;;
3543;SDS011;1786;52.870;9.578;2023-07-13T03:19:33;8.30;;;5.27;;
3543;SDS011;1786;52.870;9.578;2023-07-13T03:22:01;5.40;;;4.87;;
3543;SDS011;1786;52.870;9.578;2023-07-13T03:24:28;12.87;;;5.33;;
3543;SDS011;1786;52.870;9.578;2023-07-13T03:26:56;16.13;;;5.40;;
3543;SDS011;1786;52.870;9.578;2023-07-13T03:29:23;8.80;;;5.10;;
3543;SDS011;1786;52.870;9.578;2023-07-13T03:31:50;10.43;;;6.00;;
3543;SDS011;1786;52.870;9.578;2023-07-13T03:34:17;8.43;;;5.03;;
3543;SDS011;1786;52.870;9.578;2023-07-13T03:36:44;7.83;;;4.73;;
3543;SDS011;1786;52.870;9.578;2023-07-13T03:39:12;9.10;;;5.07;;
3543;SDS011;1786;52.870;9.578;2023-07-13T03:41:45;7.30;;;4.40;;
3543;SDS011;1786;52.870;9.578;2023-07-13T03:44:12;10.00;;;5.27;;
3543;SDS011;1786;52.870;9.578;2023-07-13T03:46:39;9.00;;;4.10;;
3543;SDS011;1786;52.870;9.578;2023-07-13T03:49:06;12.07;;;5.33;;
3543;SDS011;1786;52.870;9.578;2023-07-13T03:51:33;7.00;;;4.27;;
3543;SDS011;1786;52.870;9.578;2023-07-13T03:54:00;9.03;;;4.27;;
3543;SDS011;1786;52.870;9.578;2023-07-13T03:56:27;7.73;;;4.23;;
3543;SDS011;1786;52.870;9.578;2023-07-13T03:58:54;11.20;;;4.47;;
3543;SDS011;1786;52.870;9.578;2023-07-13T04:01:22;6.63;;;4.70;;
3543;SDS011;1786;52.870;9.578;2023-07-13T04:03:51;9.13;;;5.40;;
3543;SDS011;1786;52.870;9.578;2023-07-13T04:06:22;10.80;;;4.30;;
3543;SDS011;1786;52.870;9.578;2023-07-13T04:08:53;10.63;;;4.17;;
3543;SDS011;1786;52.870;9.578;2023-07-13T04:11:22;16.43;;;5.43;;
3543;SDS011;1786;52.870;9.578;2023-07-13T04:13:50;5.27;;;3.70;;
3543;SDS011;1786;52.870;9.578;2023-07-13T04:16:18;4.87;;;4.23;;
3543;SDS011;1786;52.870;9.578;2023-07-13T04:18:46;8.23;;;3.90;;
3543;SDS011;1786;52.870;9.578;2023-07-13T04:21:13;8.20;;;3.43;;
3543;SDS011;1786;52.870;9.578;2023-07-13T04:23:41;11.93;;;4.83;;
3543;SDS011;1786;52.870;9.578;2023-07-13T04:26:08;10.83;;;4.10;;
3543;SDS011;1786;52.870;9.578;2023-07-13T04:28:35;5.70;;;3.87;;
3543;SDS011;1786;52.870;9.578;2023-07-13T04:31:02;13.20;;;3.60;;
3543;SDS011;1786;52.870;9.578;2023-07-13T04:33:29;12.97;;;3.77;;
3543;SDS011;1786;52.870;9.578;2023-07-13T04:35:57;12.40;;;3.43;;
3543;SDS011;1786;52.870;9.578;2023-07-13T04:38:24;9.07;;;3.70;;
3543;SDS011;1786;52.870;9.578;2023-07-13T04:40:55;11.00;;;3.40;;
3543;SDS011;1786;52.870;9.578;2023-07-13T04:43:25;4.10;;;3.10;;
3543;SDS011;1786;52.870;9.578;2023-07-13T04:45:53;8.20;;;2.77;;
3543;SDS011;1786;52.870;9.578;2023-07-13T04:48:20;10.03;;;4.00;;
3543;SDS011;1786;52.870;9.578;2023-07-13T04:50:48;12.10;;;2.73;;
3543;SDS011;1786;52.870;9.578;2023-07-13T04:53:21;11.60;;;3.73;;
3543;SDS011;1786;52.870;9.578;2023-07-13T04:55:50;9.70;;;3.10;;
3543;SDS011;1786;52.870;9.578;2023-07-13T04:58:18;10.60;;;3.77;;
3543;SDS011;1786;52.870;9.578;2023-07-13T05:00:44;26.50;;;4.23;;
3543;SDS011;1786;52.870;9.578;2023-07-13T05:03:11;10.43;;;3.37;;
3543;SDS011;1786;52.870;9.578;2023-07-13T05:05:38;5.90;;;3.00;;
3543;SDS011;1786;52.870;9.578;2023-07-13T05:08:05;10.80;;;2.97;;
3543;SDS011;1786;52.870;9.578;2023-07-13T05:10:34;8.67;;;3.00;;
3543;SDS011;1786;52.870;9.578;2023-07-13T05:13:02;12.90;;;3.40;;
3543;SDS011;1786;52.870;9.578;2023-07-13T05:15:29;6.93;;;2.80;;
3543;SDS011;1786;52.870;9.578;2023-07-13T05:17:56;8.80;;;2.87;;
3543;SDS011;1786;52.870;9.578;2023-07-13T05:20:22;6.63;;;3.23;;
3543;SDS011;1786;52.870;9.578;2023-07-13T05:22:49;8.33;;;2.93;;
3543;SDS011;1786;52.870;9.578;2023-07-13T05:25:17;5.33;;;3.23;;
3543;SDS011;1786;52.870;9.578;2023-07-13T05:27:44;11.70;;;3.30;;
3543;SDS011;1786;52.870;9.578;2023-07-13T05:30:12;7.97;;;2.17;;
3543;SDS011;1786;52.870;9.578;2023-07-13T05:32:39;8.80;;;2.17;;
3543;SDS011;1786;52.870;9.578;2023-07-13T05:35:07;4.43;;;2.03;;
3543;SDS011;1786;52.870;9.578;2023-07-13T05:37:37;9.33;;;2.20;;
3543;SDS011;1786;52.870;9.578;2023-07-13T05:40:04;10.17;;;2.37;;
3543;SDS011;1786;52.870;9.578;2023-07-13T05:42:31;6.37;;;1.90;;
3543;SDS011;1786;52.870;9.578;2023-07-13T05:44:57;11.73;;;2.60;;
3543;SDS011;1786;52.870;9.578;2023-07-13T05:47:25;7.80;;;2.13;;
3543;SDS011;1786;52.870;9.578;2023-07-13T05:49:52;4.43;;;1.45;;
3543;SDS011;1786;52.870;9.578;2023-07-13T05:52:19;3.28;;;1.65;;
3543;SDS011;1786;52.870;9.578;2023-07-13T05:54:46;9.90;;;2.00;;
3543;SDS011;1786;52.870;9.578;2023-07-13T05:57:14;4.60;;;2.00;;
3543;SDS011;1786;52.870;9.578;2023-07-13T05:59:41;10.27;;;2.20;;
3543;SDS011;1786;52.870;9.578;2023-07-13T06:02:08;4.68;;;1.92;;
3543;SDS011;1786;52.870;9.578;2023-07-13T06:04:37;6.15;;;1.85;;
3543;SDS011;1786;52.870;9.578;2023-07-13T06:07:03;8.65;;;2.17;;
3543;SDS011;1786;52.870;9.578;2023-07-13T06:09:32;3.35;;;1.75;;
3543;SDS011;1786;52.870;9.578;2023-07-13T06:11:58;9.27;;;2.83;;
3543;SDS011;1786;52.870;9.578;2023-07-13T06:14:25;8.13;;;2.30;;
3543;SDS011;1786;52.870;9.578;2023-07-13T06:16:53;7.57;;;2.15;;
3543;SDS011;1786;52.870;9.578;2023-07-13T06:19:20;5.18;;;1.90;;
3543;SDS011;1786;52.870;9.578;2023-07-13T06:21:47;2.15;;;1.95;;
3543;SDS011;1786;52.870;9.578;2023-07-13T06:24:14;5.68;;;1.92;;
3543;SDS011;1786;52.870;9.578;2023-07-13T06:26:40;7.78;;;2.10;;
3543;SDS011;1786;52.870;9.578;2023-07-13T06:29:07;9.23;;;2.38;;
3543;SDS011;1786;52.870;9.578;2023-07-13T06:31:34;9.63;;;2.10;;
3543;SDS011;1786;52.870;9.578;2023-07-13T06:34:01;5.15;;;2.22;;
3543;SDS011;1786;52.870;9.578;2023-07-13T06:36:28;7.25;;;2.25;;
3543;SDS011;1786;52.870;9.578;2023-07-13T06:38:55;2.35;;;1.48;;
3543;SDS011;1786;52.870;9.578;2023-07-13T06:41:22;5.03;;;1.92;;
3543;SDS011;1786;52.870;9.578;2023-07-13T06:43:49;3.72;;;1.48;;
3543;SDS011;1786;52.870;9.578;2023-07-13T06:46:16;7.28;;;2.00;;
3543;SDS011;1786;52.870;9.578;2023-07-13T06:48:43;13.50;;;2.20;;
3543;SDS011;1786;52.870;9.578;2023-07-13T06:51:10;9.73;;;1.95;;
3543;SDS011;1786;52.870;9.578;2023-07-13T06:53:37;16.10;;;2.67;;
3543;SDS011;1786;52.870;9.578;2023-07-13T06:56:04;6.78;;;2.10;;
3543;SDS011;1786;52.870;9.578;2023-07-13T06:58:33;9.18;;;2.35;;
3543;SDS011;1786;52.870;9.578;2023-07-13T07:01:01;5.28;;;2.20;;
3543;SDS011;1786;52.870;9.578;2023-07-13T07:03:27;3.65;;;1.98;;
3543;SDS011;1786;52.870;9.578;2023-07-13T07:05:59;5.72;;;2.10;;
3543;SDS011;1786;52.870;9.578;2023-07-13T07:08:38;7.25;;;1.90;;
3543;SDS011;1786;52.870;9.578;2023-07-13T07:11:05;9.63;;;2.30;;
3543;SDS011;1786;52.870;9.578;2023-07-13T07:13:35;8.70;;;1.88;;
3543;SDS011;1786;52.870;9.578;2023-07-13T07:16:01;9.20;;;2.65;;
3543;SDS011;1786;52.870;9.578;2023-07-13T07:18:28;4.28;;;2.30;;
3543;SDS011;1786;52.870;9.578;2023-07-13T07:20:55;7.47;;;3.53;;
3543;SDS011;1786;52.870;9.578;2023-07-13T07:23:22;13.30;;;2.38;;
3543;SDS011;1786;52.870;9.578;2023-07-13T07:25:49;3.55;;;1.88;;
3543;SDS011;1786;52.870;9.578;2023-07-13T07:28:16;6.13;;;2.35;;
3543;SDS011;1786;52.870;9.578;2023-07-13T07:30:49;3.95;;;2.15;;
3543;SDS011;1786;52.870;9.578;2023-07-13T07:33:23;8.15;;;2.42;;
3543;SDS011;1786;52.870;9.578;2023-07-13T07:35:51;7.60;;;2.35;;
3543;SDS011;1786;52.870;9.578;2023-07-13T07:38:21;11.50;;;2.72;;
3543;SDS011;1786;52.870;9.578;2023-07-13T07:40:51;6.93;;;2.20;;
3543;SDS011;1786;52.870;9.578;2023-07-13T07:43:21;8.35;;;2.25;;
3543;SDS011;1786;52.870;9.578;2023-07-13T07:45:48;4.82;;;1.70;;
3543;SDS011;1786;52.870;9.578;2023-07-13T07:48:14;5.25;;;2.35;;
3543;SDS011;1786;52.870;9.578;2023-07-13T07:50:41;8.18;;;2.20;;
3543;SDS011;1786;52.870;9.578;2023-07-13T07:53:08;8.15;;;2.50;;
3543;SDS011;1786;52.870;9.578;2023-07-13T07:55:36;7.90;;;2.28;;
3543;SDS011;1786;52.870;9.578;2023-07-13T07:58:07;6.47;;;2.30;;
3543;SDS011;1786;52.870;9.578;2023-07-13T08:00:54;8.55;;;2.60;;
3543;SDS011;1786;52.870;9.578;2023-07-13T08:03:23;6.10;;;2.15;;
3543;SDS011;1786;52.870;9.578;2023-07-13T08:05:53;7.78;;;2.50;;
3543;SDS011;1786;52.870;9.578;2023-07-13T08:08:23;9.53;;;2.80;;
3543;SDS011;1786;52.870;9.578;2023-07-13T08:10:51;5.17;;;2.00;;
3543;SDS011;1786;52.870;9.578;2023-07-13T08:13:23;10.20;;;3.20;;
3543;SDS011;1786;52.870;9.578;2023-07-13T08:15:49;6.53;;;2.70;;
3543;SDS011;1786;52.870;9.578;2023-07-13T08:18:17;4.63;;;2.17;;
3543;SDS011;1786;52.870;9.578;2023-07-13T08:20:44;6.50;;;2.43;;
3543;SDS011;1786;52.870;9.578;2023-07-13T08:23:11;6.70;;;2.00;;
3543;SDS011;1786;52.870;9.578;2023-07-13T08:25:38;4.43;;;2.50;;
3543;SDS011;1786;52.870;9.578;2023-07-13T08:28:05;8.20;;;2.03;;
3543;SDS011;1786;52.870;9.578;2023-07-13T08:30:33;13.70;;;2.37;;
3543;SDS011;1786;52.870;9.578;2023-07-13T08:33:00;6.40;;;2.47;;
3543;SDS011;1786;52.870;9.578;2023-07-13T08:35:28;8.87;;;2.40;;
3543;SDS011;1786;52.870;9.578;2023-07-13T08:37:54;7.80;;;2.70;;
3543;SDS011;1786;52.870;9.578;2023-07-13T08:40:24;12.70;;;2.60;;
3543;SDS011;1786;52.870;9.578;2023-07-13T08:42:54;16.53;;;3.10;;
3543;SDS011;1786;52.870;9.578;2023-07-13T08:45:25;10.45;;;2.80;;
3543;SDS011;1786;52.870;9.578;2023-07-13T08:50:58;8.83;;;1.90;;
3543;SDS011;1786;52.870;9.578;2023-07-13T08:53:35;13.00;;;2.40;;
3543;SDS011;1786;52.870;9.578;2023-07-13T08:56:05;6.30;;;1.90;;
3543;SDS011;1786;52.870;9.578;2023-07-13T08:58:40;2.30;;;1.43;;
3543;SDS011;1786;52.870;9.578;2023-07-13T09:01:14;4.87;;;2.10;;
3543;SDS011;1786;52.870;9.578;2023-07-13T09:03:52;5.30;;;1.90;;
3543;SDS011;1786;52.870;9.578;2023-07-13T09:09:43;4.10;;;1.77;;
3543;SDS011;1786;52.870;9.578;2023-07-13T09:15:31;7.80;;;2.97;;
3543;SDS011;1786;52.870;9.578;2023-07-13T09:18:08;3.83;;;2.50;;
3543;SDS011;1786;52.870;9.578;2023-07-13T09:20:42;5.43;;;1.93;;
3543;SDS011;1786;52.870;9.578;2023-07-13T09:23:17;4.17;;;1.73;;
3543;SDS011;1786;52.870;9.578;2023-07-13T09:25:48;3.90;;;1.90;;
3543;SDS011;1786;52.870;9.578;2023-07-13T09:28:23;5.10;;;1.70;;
3543;SDS011;1786;52.870;9.578;2023-07-13T09:30:58;5.17;;;2.70;;
3543;SDS011;1786;52.870;9.578;2023-07-13T09:33:49;5.53;;;2.30;;
3543;SDS011;1786;52.870;9.578;2023-07-13T09:36:29;5.03;;;2.13;;
3543;SDS011;1786;52.870;9.578;2023-07-13T09:44:11;2.50;;;2.27;;
3543;SDS011;1786;52.870;9.578;2023-07-13T09:46:44;3.77;;;2.30;;
3543;SDS011;1786;52.870;9.578;2023-07-13T09:49:22;8.30;;;2.40;;
3543;SDS011;1786;52.870;9.578;2023-07-13T09:51:57;5.83;;;2.03;;
3543;SDS011;1786;52.870;9.578;2023-07-13T09:54:29;6.57;;;1.70;;
3543;SDS011;1786;52.870;9.578;2023-07-13T09:57:01;4.10;;;2.17;;
3543;SDS011;1786;52.870;9.578;2023-07-13T09:59:31;4.23;;;2.10;;
3543;SDS011;1786;52.870;9.578;2023-07-13T10:05:03;6.53;;;2.30;;
3543;SDS011;1786;52.870;9.578;2023-07-13T10:07:38;9.00;;;2.80;;
3543;SDS011;1786;52.870;9.578;2023-07-13T10:10:17;3.97;;;2.40;;
3543;SDS011;1786;52.870;9.578;2023-07-13T10:12:48;2.93;;;2.03;;
3543;SDS011;1786;52.870;9.578;2023-07-13T10:15:17;8.30;;;2.03;;
3543;SDS011;1786;52.870;9.578;2023-07-13T10:17:54;3.50;;;1.93;;
3543;SDS011;1786;52.870;9.578;2023-07-13T10:20:24;6.90;;;2.23;;
3543;SDS011;1786;52.870;9.578;2023-07-13T10:23:00;6.00;;;2.30;;
3543;SDS011;1786;52.870;9.578;2023-07-13T10:25:32;9.27;;;2.40;;
3543;SDS011;1786;52.870;9.578;2023-07-13T10:28:03;2.40;;;1.87;;
3543;SDS011;1786;52.870;9.578;2023-07-13T10:30:38;6.53;;;2.50;;
3543;SDS011;1786;52.870;9.578;2023-07-13T10:33:10;4.57;;;2.07;;
3543;SDS011;1786;52.870;9.578;2023-07-13T10:35:38;4.70;;;1.83;;
3543;SDS011;1786;52.870;9.578;2023-07-13T10:38:11;3.40;;;1.80;;
3543;SDS011;1786;52.870;9.578;2023-07-13T10:40:50;2.50;;;1.80;;
3543;SDS011;1786;52.870;9.578;2023-07-13T10:43:28;2.53;;;1.70;;
3543;SDS011;1786;52.870;9.578;2023-07-13T10:46:04;1.93;;;1.83;;
3543;SDS011;1786;52.870;9.578;2023-07-13T10:48:33;4.93;;;2.30;;
3543;SDS011;1786;52.870;9.578;2023-07-13T10:51:03;3.03;;;1.97;;
3543;SDS011;1786;52.870;9.578;2023-07-13T10:53:34;6.00;;;2.37;;
3543;SDS011;1786;52.870;9.578;2023-07-13T10:56:04;5.80;;;1.83;;
3543;SDS011;1786;52.870;9.578;2023-07-13T10:58:36;4.43;;;1.40;;
3543;SDS011;1786;52.870;9.578;2023-07-13T11:03:49;2.43;;;1.87;;
3543;SDS011;1786;52.870;9.578;2023-07-13T11:12:00;3.23;;;1.80;;
3543;SDS011;1786;52.870;9.578;2023-07-13T11:14:36;5.47;;;2.13;;
3543;SDS011;1786;52.870;9.578;2023-07-13T11:17:24;1.80;;;1.70;;
3543;SDS011;1786;52.870;9.578;2023-07-13T11:22:45;2.00;;;1.80;;
3543;SDS011;1786;52.870;9.578;2023-07-13T11:27:49;10.13;;;1.97;;
3543;SDS011;1786;52.870;9.578;2023-07-13T11:30:22;5.60;;;2.07;;
3543;SDS011;1786;52.870;9.578;2023-07-13T11:33:01;3.30;;;2.10;;
3543;SDS011;1786;52.870;9.578;2023-07-13T11:35:29;3.83;;;2.00;;
3543;SDS011;1786;52.870;9.578;2023-07-13T11:37:58;2.27;;;2.00;;
3543;SDS011;1786;52.870;9.578;2023-07-13T11:40:26;4.43;;;2.10;;
3543;SDS011;1786;52.870;9.578;2023-07-13T11:43:02;1.40;;;1.30;;
3543;SDS011;1786;52.870;9.578;2023-07-13T11:45:33;4.57;;;1.90;;
3543;SDS011;1786;52.870;9.578;2023-07-13T11:48:18;6.63;;;1.87;;
3543;SDS011;1786;52.870;9.578;2023-07-13T11:51:05;3.70;;;1.97;;
3543;SDS011;1786;52.870;9.578;2023-07-13T11:53:40;3.30;;;1.63;;
3543;SDS011;1786;52.870;9.578;2023-07-13T11:56:12;4.13;;;1.17;;
3543;SDS011;1786;52.870;9.578;2023-07-13T11:58:40;3.50;;;1.73;;
3543;SDS011;1786;52.870;9.578;2023-07-13T12:01:24;3.03;;;1.70;;
3543;SDS011;1786;52.870;9.578;2023-07-13T12:03:53;3.23;;;1.40;;
3543;SDS011;1786;52.870;9.578;2023-07-13T12:06:24;3.37;;;1.50;;
3543;SDS011;1786;52.870;9.578;2023-07-13T12:08:58;6.73;;;1.63;;
3543;SDS011;1786;52.870;9.578;2023-07-13T12:11:27;2.73;;;1.70;;
3543;SDS011;1786;52.870;9.578;2023-07-13T12:13:54;9.00;;;2.23;;
3543;SDS011;1786;52.870;9.578;2023-07-13T12:16:29;2.90;;;1.57;;
3543;SDS011;1786;52.870;9.578;2023-07-13T12:19:00;7.03;;;1.73;;
3543;SDS011;1786;52.870;9.578;2023-07-13T12:21:32;2.77;;;1.50;;
3543;SDS011;1786;52.870;9.578;2023-07-13T12:24:12;1.50;;;1.40;;
3543;SDS011;1786;52.870;9.578;2023-07-13T12:26:41;1.50;;;1.00;;
3543;SDS011;1786;52.870;9.578;2023-07-13T12:29:11;1.10;;;1.00;;
3543;SDS011;1786;52.870;9.578;2023-07-13T12:31:43;1.37;;;1.27;;
3543;SDS011;1786;52.870;9.578;2023-07-13T12:34:13;7.87;;;1.30;;
3543;SDS011;1786;52.870;9.578;2023-07-13T12:36:46;5.60;;;1.57;;
3543;SDS011;1786;52.870;9.578;2023-07-13T12:41:44;2.97;;;1.37;;
3543;SDS011;1786;52.870;9.578;2023-07-13T12:44:13;4.87;;;1.37;;
3543;SDS011;1786;52.870;9.578;2023-07-13T12:46:52;2.20;;;1.27;;
3543;SDS011;1786;52.870;9.578;2023-07-13T12:49:27;1.97;;;1.60;;
3543;SDS011;1786;52.870;9.578;2023-07-13T12:51:58;1.57;;;1.47;;
3543;SDS011;1786;52.870;9.578;2023-07-13T12:54:27;3.50;;;2.03;;
3543;SDS011;1786;52.870;9.578;2023-07-13T12:56:55;4.93;;;1.83;;
3543;SDS011;1786;52.870;9.578;2023-07-13T12:59:25;1.30;;;1.30;;
3543;SDS011;1786;52.870;9.578;2023-07-13T13:01:55;1.30;;;1.30;;
3543;SDS011;1786;52.870;9.578;2023-07-13T13:04:22;1.77;;;1.47;;
3543;SDS011;1786;52.870;9.578;2023-07-13T13:07:00;7.60;;;1.40;;
3543;SDS011;1786;52.870;9.578;2023-07-13T13:09:28;1.27;;;1.20;;
3543;SDS011;1786;52.870;9.578;2023-07-13T13:11:54;1.30;;;1.30;;
3543;SDS011;1786;52.870;9.578;2023-07-13T13:14:21;1.23;;;1.13;;
3543;SDS011;1786;52.870;9.578;2023-07-13T13:16:48;1.10;;;1.10;;
3543;SDS011;1786;52.870;9.578;2023-07-13T13:19:17;1.73;;;1.20;;
3543;SDS011;1786;52.870;9.578;2023-07-13T13:21:48;1.13;;;1.13;;
3543;SDS011;1786;52.870;9.578;2023-07-13T13:24:20;2.73;;;1.13;;
3543;SDS011;1786;52.870;9.578;2023-07-13T13:26:48;1.50;;;1.40;;
3543;SDS011;1786;52.870;9.578;2023-07-13T13:29:18;0.93;;;0.93;;
3543;SDS011;1786;52.870;9.578;2023-07-13T13:31:46;1.47;;;1.10;;
3543;SDS011;1786;52.870;9.578;2023-07-13T13:34:15;1.47;;;1.27;;
3543;SDS011;1786;52.870;9.578;2023-07-13T13:36:44;1.00;;;0.80;;
3543;SDS011;1786;52.870;9.578;2023-07-13T13:39:18;1.00;;;1.00;;
3543;SDS011;1786;52.870;9.578;2023-07-13T13:41:49;1.00;;;1.00;;
3543;SDS011;1786;52.870;9.578;2023-07-13T13:44:17;0.80;;;0.80;;
3543;SDS011;1786;52.870;9.578;2023-07-13T13:46:46;1.60;;;1.07;;
3543;SDS011;1786;52.870;9.578;2023-07-13T13:49:16;1.43;;;1.10;;
3543;SDS011;1786;52.870;9.578;2023-07-13T13:51:45;1.57;;;1.13;;
3543;SDS011;1786;52.870;9.578;2023-07-13T13:54:15;1.20;;;1.10;;
3543;SDS011;1786;52.870;9.578;2023-07-13T13:56:43;1.93;;;0.93;;
3543;SDS011;1786;52.870;9.578;2023-07-13T13:59:11;0.80;;;0.80;;
3543;SDS011;1786;52.870;9.578;2023-07-13T14:01:39;1.10;;;1.10;;
3543;SDS011;1786;52.870;9.578;2023-07-13T14:04:08;1.30;;;1.20;;
3543;SDS011;1786;52.870;9.578;2023-07-13T14:06:40;1.03;;;1.03;;
3543;SDS011;1786;52.870;9.578;2023-07-13T14:09:11;1.03;;;0.93;;
3543;SDS011;1786;52.870;9.578;2023-07-13T14:11:40;1.20;;;1.20;;
3543;SDS011;1786;52.870;9.578;2023-07-13T14:14:09;1.40;;;0.80;;
3543;SDS011;1786;52.870;9.578;2023-07-13T14:16:42;1.37;;;1.10;;
3543;SDS011;1786;52.870;9.578;2023-07-13T14:19:12;2.13;;;0.93;;
3543;SDS011;1786;52.870;9.578;2023-07-13T14:21:41;0.80;;;0.80;;
3543;SDS011;1786;52.870;9.578;2023-07-13T14:24:07;0.93;;;0.93;;
3543;SDS011;1786;52.870;9.578;2023-07-13T14:26:38;0.80;;;0.80;;
3543;SDS011;1786;52.870;9.578;2023-07-13T14:29:11;0.80;;;0.80;;
3543;SDS011;1786;52.870;9.578;2023-07-13T14:31:41;1.10;;;1.00;;
3543;SDS011;1786;52.870;9.578;2023-07-13T14:34:11;1.10;;;1.10;;
3543;SDS011;1786;52.870;9.578;2023-07-13T14:36:47;1.33;;;1.00;;
3543;SDS011;1786;52.870;9.578;2023-07-13T14:39:18;1.23;;;1.23;;
3543;SDS011;1786;52.870;9.578;2023-07-13T14:41:49;0.90;;;0.90;;
3543;SDS011;1786;52.870;9.578;2023-07-13T14:44:20;1.13;;;1.13;;
3543;SDS011;1786;52.870;9.578;2023-07-13T14:46:50;1.10;;;1.00;;
3543;SDS011;1786;52.870;9.578;2023-07-13T14:51:59;1.30;;;1.30;;
3543;SDS011;1786;52.870;9.578;2023-07-13T14:54:29;1.73;;;1.03;;
3543;SDS011;1786;52.870;9.578;2023-07-13T14:56:56;1.83;;;1.17;;
3543;SDS011;1786;52.870;9.578;2023-07-13T14:59:22;1.17;;;1.10;;
3543;SDS011;1786;52.870;9.578;2023-07-13T15:01:50;1.43;;;1.33;;
3543;SDS011;1786;52.870;9.578;2023-07-13T15:04:17;1.10;;;1.10;;
3543;SDS011;1786;52.870;9.578;2023-07-13T15:06:56;1.33;;;0.90;;
3543;SDS011;1786;52.870;9.578;2023-07-13T15:09:26;1.37;;;1.27;;
3543;SDS011;1786;52.870;9.578;2023-07-13T15:11:55;2.60;;;1.40;;
3543;SDS011;1786;52.870;9.578;2023-07-13T15:14:23;1.17;;;1.17;;
3543;SDS011;1786;52.870;9.578;2023-07-13T15:16:52;1.60;;;1.50;;
3543;SDS011;1786;52.870;9.578;2023-07-13T15:19:21;2.43;;;1.20;;
3543;SDS011;1786;52.870;9.578;2023-07-13T15:21:49;2.43;;;1.80;;
3543;SDS011;1786;52.870;9.578;2023-07-13T15:24:18;1.17;;;1.07;;
3543;SDS011;1786;52.870;9.578;2023-07-13T15:26:45;1.23;;;1.20;;
3543;SDS011;1786;52.870;9.578;2023-07-13T15:29:13;3.90;;;1.30;;
3543;SDS011;1786;52.870;9.578;2023-07-13T15:31:40;1.40;;;1.30;;
3543;SDS011;1786;52.870;9.578;2023-07-13T15:34:11;2.50;;;1.43;;
3543;SDS011;1786;52.870;9.578;2023-07-13T15:36:43;2.33;;;1.93;;
3543;SDS011;1786;52.870;9.578;2023-07-13T15:39:13;1.37;;;1.27;;
3543;SDS011;1786;52.870;9.578;2023-07-13T15:41:45;1.43;;;1.33;;
3543;SDS011;1786;52.870;9.578;2023-07-13T15:44:27;4.37;;;1.40;;
3543;SDS011;1786;52.870;9.578;2023-07-13T15:46:55;1.83;;;1.63;;
3543;SDS011;1786;52.870;9.578;2023-07-13T15:49:22;1.40;;;1.30;;
3543;SDS011;1786;52.870;9.578;2023-07-13T15:51:49;1.37;;;1.27;;
3543;SDS011;1786;52.870;9.578;2023-07-13T15:54:17;2.57;;;1.63;;
3543;SDS011;1786;52.870;9.578;2023-07-13T15:56:47;2.77;;;1.70;;
3543;SDS011;1786;52.870;9.578;2023-07-13T15:59:18;1.33;;;1.23;;
3543;SDS011;1786;52.870;9.578;2023-07-13T16:01:45;2.63;;;1.83;;
3543;SDS011;1786;52.870;9.578;2023-07-13T16:04:15;1.80;;;1.30;;